createdAt,value
2024-05-09T00:01:22.928Z,93328.00
2024-05-09T00:02:22.983Z,93328.00
2024-05-09T00:03:22.879Z,93326.00
2024-05-09T00:04:22.899Z,93326.00
2024-05-09T00:05:22.941Z,93326.00
2024-05-09T00:06:22.839Z,93327.00
2024-05-09T00:07:22.928Z,93325.00
2024-05-09T00:08:22.900Z,93326.00
2024-05-09T00:09:22.841Z,93327.00
2024-05-09T00:10:29.264Z,93326.00
2024-05-09T00:11:24.010Z,93326.00
2024-05-09T00:12:23.096Z,93326.00
2024-05-09T00:13:22.928Z,93326.00
2024-05-09T00:14:22.917Z,93327.00
2024-05-09T00:15:22.849Z,93327.00
2024-05-09T00:16:22.856Z,93327.00
2024-05-09T00:17:23.049Z,93328.00
2024-05-09T00:18:22.986Z,93329.00
2024-05-09T00:19:22.990Z,93329.00
2024-05-09T00:20:28.433Z,93330.00
2024-05-09T00:21:23.872Z,93328.00
2024-05-09T00:22:22.883Z,93329.00
2024-05-09T00:23:22.955Z,93328.00
2024-05-09T00:24:22.892Z,93326.00
2024-05-09T00:25:22.910Z,93326.00
2024-05-09T00:26:22.949Z,93326.00
2024-05-09T00:27:22.924Z,93324.00
2024-05-09T00:28:22.923Z,93323.00
2024-05-09T00:29:22.977Z,93324.00
2024-05-09T00:30:31.323Z,93324.00
2024-05-09T00:31:23.939Z,93322.00
2024-05-09T00:32:23.146Z,93320.00
2024-05-09T00:33:23.248Z,93320.00
2024-05-09T00:34:23.089Z,93319.00
2024-05-09T00:35:23.295Z,93318.00
2024-05-09T00:36:22.972Z,93318.00
2024-05-09T00:37:22.951Z,93317.00
2024-05-09T00:38:23.026Z,93315.00
2024-05-09T00:39:22.956Z,93314.00
2024-05-09T00:40:31.023Z,93312.00
2024-05-09T00:41:23.995Z,93315.00
2024-05-09T00:42:22.959Z,93316.00
2024-05-09T00:43:23.013Z,93314.00
2024-05-09T00:44:23.058Z,93315.00
2024-05-09T00:45:22.981Z,93315.00
2024-05-09T00:46:22.968Z,93318.00
2024-05-09T00:47:23.191Z,93316.00
2024-05-09T00:48:23.060Z,93319.00
2024-05-09T00:49:23.149Z,93317.00
2024-05-09T00:50:29.912Z,93315.00
2024-05-09T00:51:24.014Z,93317.00
2024-05-09T00:52:22.999Z,93315.00
2024-05-09T00:53:23.026Z,93315.00
2024-05-09T00:54:23.099Z,93315.00
2024-05-09T00:55:23.005Z,93313.00
2024-05-09T00:56:23.051Z,93315.00
2024-05-09T00:57:23.008Z,93314.00
2024-05-09T00:58:23.002Z,93314.00
2024-05-09T00:59:23.085Z,93315.00
2024-05-09T01:00:31.146Z,93315.00
2024-05-09T01:01:24.041Z,93315.00
2024-05-09T01:02:23.111Z,93312.00
2024-05-09T01:03:23.231Z,93313.00
2024-05-09T01:04:23.039Z,93314.00
2024-05-09T01:05:23.121Z,93313.00
2024-05-09T01:06:23.040Z,93311.00
2024-05-09T01:07:23.034Z,93309.00
2024-05-09T01:08:23.169Z,93311.00
2024-05-09T01:09:23.087Z,93309.00
2024-05-09T01:10:28.203Z,93309.00
2024-05-09T01:11:24.158Z,93308.00
2024-05-09T01:12:23.078Z,93306.00
2024-05-09T01:13:23.025Z,93306.00
2024-05-09T01:14:23.164Z,93305.00
2024-05-09T01:15:23.027Z,93306.00
2024-05-09T01:16:23.025Z,93304.00
2024-05-09T01:17:23.282Z,93305.00
2024-05-09T01:18:23.114Z,93303.00
2024-05-09T01:19:23.117Z,93305.00
2024-05-09T01:20:31.998Z,93304.00
2024-05-09T01:21:24.066Z,93305.00
2024-05-09T01:22:23.057Z,93301.00
2024-05-09T01:23:23.060Z,93302.00
2024-05-09T01:24:23.041Z,93303.00
2024-05-09T01:25:23.034Z,93302.00
2024-05-09T01:26:23.076Z,93302.00
2024-05-09T01:27:23.049Z,93301.00
2024-05-09T01:28:23.048Z,93301.00
2024-05-09T01:29:23.133Z,93302.00
2024-05-09T01:30:31.271Z,93300.00
2024-05-09T01:31:24.063Z,93300.00
2024-05-09T01:32:23.270Z,93300.00
2024-05-09T01:33:23.284Z,93300.00
2024-05-09T01:34:23.108Z,93299.00
2024-05-09T01:35:23.188Z,93302.00
2024-05-09T01:36:23.083Z,93299.00
2024-05-09T01:37:23.124Z,93299.00
2024-05-09T01:38:23.202Z,93301.00
2024-05-09T01:39:23.103Z,93300.00
2024-05-09T01:40:32.715Z,93302.00
2024-05-09T01:41:24.165Z,93300.00
2024-05-09T01:42:23.130Z,93300.00
2024-05-09T01:43:23.130Z,93300.00
2024-05-09T01:44:23.252Z,93299.00
2024-05-09T01:45:23.162Z,93297.00
2024-05-09T01:46:23.211Z,93299.00
2024-05-09T01:47:23.398Z,93297.00
2024-05-09T01:48:23.308Z,93299.00
2024-05-09T01:49:23.384Z,93295.00
2024-05-09T01:50:35.660Z,93297.00
2024-05-09T01:51:24.207Z,93297.00
2024-05-09T01:52:23.196Z,93298.00
2024-05-09T01:53:23.220Z,93296.00
2024-05-09T01:54:23.200Z,93298.00
2024-05-09T01:55:23.212Z,93299.00
2024-05-09T01:56:23.271Z,93298.00
2024-05-09T01:57:23.222Z,93300.00
2024-05-09T01:58:23.238Z,93301.00
2024-05-09T01:59:23.305Z,93301.00
2024-05-09T02:00:33.726Z,93303.00
2024-05-09T02:01:24.311Z,93304.00
2024-05-09T02:02:23.303Z,93304.00
2024-05-09T02:03:23.513Z,93305.00
2024-05-09T02:04:23.450Z,93304.00
2024-05-09T02:05:23.446Z,93304.00
2024-05-09T02:06:23.291Z,93304.00
2024-05-09T02:07:23.280Z,93305.00
2024-05-09T02:08:23.337Z,93305.00
2024-05-09T02:09:23.298Z,93303.00
2024-05-09T02:10:30.174Z,93302.00
2024-05-09T02:11:24.327Z,93305.00
2024-05-09T02:12:23.383Z,93304.00
2024-05-09T02:13:23.329Z,93303.00
2024-05-09T02:14:23.422Z,93305.00
2024-05-09T02:15:23.345Z,93305.00
2024-05-09T02:16:23.337Z,93307.00
2024-05-09T02:17:23.453Z,93306.00
2024-05-09T02:18:23.447Z,93307.00
2024-05-09T02:19:23.598Z,93306.00
2024-05-09T02:20:30.636Z,93307.00
2024-05-09T02:21:24.386Z,93307.00
2024-05-09T02:22:23.390Z,93308.00
2024-05-09T02:23:23.448Z,93308.00
2024-05-09T02:24:23.399Z,93309.00
2024-05-09T02:25:23.408Z,93310.00
2024-05-09T02:26:23.498Z,93310.00
2024-05-09T02:27:23.433Z,93309.00
2024-05-09T02:28:23.437Z,93310.00
2024-05-09T02:29:23.496Z,93308.00
2024-05-09T02:30:30.884Z,93307.00
2024-05-09T02:31:24.455Z,93306.00
2024-05-09T02:32:23.515Z,93307.00
2024-05-09T02:33:23.860Z,93308.00
2024-05-09T02:34:23.569Z,93304.00
2024-05-09T02:35:23.586Z,93303.00
2024-05-09T02:36:23.465Z,93302.00
2024-05-09T02:37:23.475Z,93301.00
2024-05-09T02:38:23.524Z,93302.00
2024-05-09T02:39:23.478Z,93303.00
2024-05-09T02:41:23.571Z,93303.00
2024-05-09T02:42:23.571Z,93304.00
2024-05-09T02:43:23.628Z,93302.00
2024-05-09T02:44:23.786Z,93301.00
2024-05-09T02:45:23.739Z,93304.00
2024-05-09T02:46:23.792Z,93302.00
2024-05-09T02:47:23.955Z,93301.00
2024-05-09T02:48:24.079Z,93299.00
2024-05-09T02:49:24.081Z,93299.00
2024-05-09T02:50:33.020Z,93300.00
2024-05-09T02:51:25.008Z,93299.00
2024-05-09T02:52:24.007Z,93296.00
2024-05-09T02:53:24.040Z,93298.00
2024-05-09T02:54:24.014Z,93297.00
2024-05-09T02:55:24.020Z,93296.00
2024-05-09T02:56:24.168Z,93297.00
2024-05-09T02:57:24.026Z,93296.00
2024-05-09T02:58:24.034Z,93296.00
2024-05-09T02:59:24.118Z,93295.00
2024-05-09T03:00:29.935Z,93296.00
2024-05-09T03:01:25.264Z,93296.00
2024-05-09T03:02:24.165Z,93296.00
2024-05-09T03:03:24.592Z,93298.00
2024-05-09T03:04:24.084Z,93298.00
2024-05-09T03:05:24.124Z,93297.00
2024-05-09T03:06:24.058Z,93295.00
2024-05-09T03:07:24.065Z,93297.00
2024-05-09T03:08:24.092Z,93296.00
2024-05-09T03:09:24.088Z,93296.00
2024-05-09T03:10:28.511Z,93296.00
2024-05-09T03:11:25.234Z,93295.00
2024-05-09T03:12:24.171Z,93296.00
2024-05-09T03:13:24.091Z,93295.00
2024-05-09T03:14:24.200Z,93294.00
2024-05-09T03:15:24.078Z,93296.00
2024-05-09T03:16:24.091Z,93295.00
2024-05-09T03:17:24.377Z,93297.00
2024-05-09T03:18:24.151Z,93296.00
2024-05-09T03:19:24.165Z,93296.00
2024-05-09T03:20:30.335Z,93297.00
2024-05-09T03:21:25.103Z,93297.00
2024-05-09T03:22:24.106Z,93297.00
2024-05-09T03:23:24.146Z,93297.00
2024-05-09T03:24:24.102Z,93299.00
2024-05-09T03:25:24.141Z,93301.00
2024-05-09T03:26:24.196Z,93302.00
2024-05-09T03:27:24.101Z,93302.00
2024-05-09T03:28:24.105Z,93301.00
2024-05-09T03:29:24.215Z,93302.00
2024-05-09T03:30:31.158Z,93303.00
2024-05-09T03:31:25.125Z,93302.00
2024-05-09T03:32:24.231Z,93303.00
2024-05-09T03:33:24.394Z,93301.00
2024-05-09T03:34:24.163Z,93303.00
2024-05-09T03:35:24.198Z,93304.00
2024-05-09T03:36:24.127Z,93305.00
2024-05-09T03:37:24.130Z,93303.00
2024-05-09T03:38:24.169Z,93307.00
2024-05-09T03:39:24.138Z,93307.00
2024-05-09T03:40:26.847Z,93308.00
2024-05-09T03:41:25.228Z,93309.00
2024-05-09T03:42:24.150Z,93309.00
2024-05-09T03:43:24.154Z,93309.00
2024-05-09T03:44:24.225Z,93311.00
2024-05-09T03:45:24.165Z,93308.00
2024-05-09T03:46:24.171Z,93309.00
2024-05-09T03:47:24.332Z,93311.00
2024-05-09T03:48:24.434Z,93308.00
2024-05-09T03:49:24.591Z,93308.00
2024-05-09T03:50:30.154Z,93308.00
2024-05-09T03:51:25.224Z,93305.00
2024-05-09T03:52:24.209Z,93307.00
2024-05-09T03:53:24.224Z,93306.00
2024-05-09T03:54:24.280Z,93307.00
2024-05-09T03:55:24.235Z,93306.00
2024-05-09T03:56:24.331Z,93306.00
2024-05-09T03:57:24.250Z,93307.00
2024-05-09T03:58:24.254Z,93307.00
2024-05-09T03:59:24.373Z,93308.00
2024-05-09T04:00:31.193Z,93307.00
2024-05-09T04:01:25.358Z,93307.00
2024-05-09T04:02:24.418Z,93307.00
2024-05-09T04:03:24.592Z,93309.00
2024-05-09T04:04:24.377Z,93309.00
2024-05-09T04:05:24.360Z,93308.00
2024-05-09T04:06:24.302Z,93310.00
2024-05-09T04:07:24.334Z,93311.00
2024-05-09T04:08:24.386Z,93309.00
2024-05-09T04:09:24.337Z,93311.00
2024-05-09T04:10:31.240Z,93311.00
2024-05-09T04:11:25.447Z,93312.00
2024-05-09T04:12:24.399Z,93312.00
2024-05-09T04:13:24.370Z,93311.00
2024-05-09T04:14:24.414Z,93311.00
2024-05-09T04:15:24.390Z,93312.00
2024-05-09T04:16:24.377Z,93311.00
2024-05-09T04:17:24.411Z,93311.00
2024-05-09T04:18:24.462Z,93312.00
2024-05-09T04:19:24.595Z,93311.00
2024-05-09T04:20:33.893Z,93314.00
2024-05-09T04:21:25.405Z,93313.00
2024-05-09T04:22:24.411Z,93314.00
2024-05-09T04:23:24.487Z,93317.00
2024-05-09T04:24:24.425Z,93316.00
2024-05-09T04:25:24.426Z,93318.00
2024-05-09T04:26:24.480Z,93320.00
2024-05-09T04:27:24.419Z,93318.00
2024-05-09T04:28:24.415Z,93322.00
2024-05-09T04:29:24.522Z,93324.00
2024-05-09T04:30:33.800Z,93324.00
2024-05-09T04:31:25.461Z,93322.00
2024-05-09T04:32:24.574Z,93326.00
2024-05-09T04:33:24.750Z,93325.00
2024-05-09T04:34:24.558Z,93325.00
2024-05-09T04:35:24.756Z,93324.00
2024-05-09T04:36:24.463Z,93322.00
2024-05-09T04:37:24.466Z,93325.00
2024-05-09T04:38:24.484Z,93324.00
2024-05-09T04:39:24.457Z,93325.00
2024-05-09T04:40:31.512Z,93326.00
2024-05-09T04:41:25.551Z,93325.00
2024-05-09T04:42:24.472Z,93326.00
2024-05-09T04:43:24.489Z,93327.00
2024-05-09T04:44:24.540Z,93329.00
2024-05-09T04:45:24.473Z,93330.00
2024-05-09T04:46:24.475Z,93331.00
2024-05-09T04:47:24.650Z,93334.00
2024-05-09T04:48:24.626Z,93332.00
2024-05-09T04:49:24.610Z,93331.00
2024-05-09T04:50:33.906Z,93331.00
2024-05-09T04:51:25.534Z,93328.00
2024-05-09T04:52:24.534Z,93329.00
2024-05-09T04:53:24.597Z,93326.00
2024-05-09T04:54:33.719Z,93325.00
2024-05-09T04:55:36.860Z,93324.00
2024-05-09T04:56:36.847Z,93323.00
2024-05-09T04:57:36.770Z,93322.00
2024-05-09T04:58:36.774Z,93321.00
2024-05-09T04:59:36.868Z,93322.00
2024-05-09T05:00:38.420Z,93322.00
2024-05-09T05:01:36.893Z,93324.00
2024-05-09T05:02:36.886Z,93322.00
2024-05-09T05:03:36.917Z,93323.00
2024-05-09T05:04:36.842Z,93326.00
2024-05-09T05:05:36.810Z,93327.00
2024-05-09T05:06:36.799Z,93329.00
2024-05-09T05:07:36.818Z,93330.00
2024-05-09T05:08:36.922Z,93331.00
2024-05-09T05:09:36.824Z,93332.00
2024-05-09T05:10:37.053Z,93330.00
2024-05-09T05:11:36.955Z,93331.00
2024-05-09T05:12:36.858Z,93331.00
2024-05-09T05:13:40.126Z,93332.00
2024-05-09T05:14:36.912Z,93332.00
2024-05-09T05:15:36.892Z,93332.00
2024-05-09T05:16:36.899Z,93332.00
2024-05-09T05:17:37.070Z,93333.00
2024-05-09T05:18:37.009Z,93333.00
2024-05-09T05:19:37.135Z,93333.00
2024-05-09T05:20:36.985Z,93333.00
2024-05-09T05:21:36.963Z,93331.00
2024-05-09T05:22:36.981Z,93331.00
2024-05-09T05:23:37.167Z,93329.00
2024-05-09T05:24:36.993Z,93330.00
2024-05-09T05:25:37.002Z,93332.00
2024-05-09T05:26:37.094Z,93330.00
2024-05-09T05:27:37.014Z,93332.00
2024-05-09T05:28:37.036Z,93333.00
2024-05-09T05:29:37.132Z,93334.00
2024-05-09T05:30:37.039Z,93335.00
2024-05-09T05:31:37.104Z,93336.00
2024-05-09T05:32:37.248Z,93335.00
2024-05-09T05:33:37.229Z,93335.00
2024-05-09T05:34:37.216Z,93334.00
2024-05-09T05:35:37.357Z,93337.00
2024-05-09T05:36:37.385Z,93337.00
2024-05-09T05:37:37.398Z,93341.00
2024-05-09T05:38:37.481Z,93340.00
2024-05-09T05:39:37.502Z,93342.00
2024-05-09T05:40:38.772Z,93339.00
2024-05-09T05:41:37.662Z,93339.00
2024-05-09T05:42:37.660Z,93341.00
2024-05-09T05:43:37.723Z,93339.00
2024-05-09T05:44:37.815Z,93337.00
2024-05-09T05:45:38.027Z,93337.00
2024-05-09T05:46:37.861Z,93334.00
2024-05-09T05:47:38.486Z,93334.00
2024-05-09T05:48:38.079Z,93335.00
2024-05-09T05:49:38.234Z,93334.00
2024-05-09T05:50:38.802Z,93334.00
2024-05-09T05:51:38.119Z,93335.00
2024-05-09T05:52:38.175Z,93335.00
2024-05-09T05:53:38.345Z,93336.00
2024-05-09T05:54:38.301Z,93337.00
2024-05-09T05:55:38.337Z,93338.00
2024-05-09T05:56:38.403Z,93338.00
2024-05-09T05:57:38.470Z,93338.00
2024-05-09T05:58:38.506Z,93338.00
2024-05-09T05:59:38.676Z,93338.00
2024-05-09T06:00:40.297Z,93341.00
2024-05-09T06:01:38.930Z,93341.00
2024-05-09T06:02:38.873Z,93342.00
2024-05-09T06:03:39.290Z,93341.00
2024-05-09T06:04:38.883Z,93343.00
2024-05-09T06:05:39.007Z,93345.00
2024-05-09T06:06:38.910Z,93343.00
2024-05-09T06:07:38.934Z,93344.00
2024-05-09T06:08:38.973Z,93347.00
2024-05-09T06:09:39.004Z,93346.00
2024-05-09T06:10:40.842Z,93346.00
2024-05-09T06:11:39.332Z,93345.00
2024-05-09T06:12:39.295Z,93348.00
2024-05-09T06:13:39.344Z,93349.00
2024-05-09T06:14:39.438Z,93345.00
2024-05-09T06:15:39.468Z,93346.00
2024-05-09T06:16:39.514Z,93348.00
2024-05-09T06:17:39.650Z,93344.00
2024-05-09T06:18:39.785Z,93344.00
2024-05-09T06:19:39.776Z,93345.00
2024-05-09T06:20:40.234Z,93344.00
2024-05-09T06:21:39.726Z,93344.00
2024-05-09T06:22:39.776Z,93343.00
2024-05-09T06:23:39.978Z,93341.00
2024-05-09T06:24:39.854Z,93342.00
2024-05-09T06:25:39.942Z,93341.00
2024-05-09T06:26:40.012Z,93341.00
2024-05-09T06:27:40.011Z,93339.00
2024-05-09T06:28:40.030Z,93336.00
2024-05-09T06:29:40.124Z,93335.00
2024-05-09T06:30:41.884Z,93334.00
2024-05-09T06:31:40.120Z,93331.00
2024-05-09T06:32:40.269Z,93332.00
2024-05-09T06:33:40.371Z,93332.00
2024-05-09T06:34:40.273Z,93335.00
2024-05-09T06:35:40.521Z,93335.00
2024-05-09T06:36:40.134Z,93334.00
2024-05-09T06:37:40.145Z,93335.00
2024-05-09T06:38:40.216Z,93335.00
2024-05-09T06:39:40.151Z,93336.00
2024-05-09T06:40:41.901Z,93337.00
2024-05-09T06:41:40.224Z,93335.00
2024-05-09T06:42:40.161Z,93335.00
2024-05-09T06:43:40.227Z,93338.00
2024-05-09T06:44:40.234Z,93337.00
2024-05-09T06:45:40.338Z,93337.00
2024-05-09T06:46:40.286Z,93337.00
2024-05-09T06:47:40.400Z,93337.00
2024-05-09T06:48:40.490Z,93337.00
2024-05-09T06:49:40.281Z,93335.00
2024-05-09T06:50:40.668Z,93338.00
2024-05-09T06:51:40.223Z,93338.00
2024-05-09T06:52:40.230Z,93338.00
2024-05-09T06:53:40.440Z,93338.00
2024-05-09T06:54:40.254Z,93339.00
2024-05-09T06:55:40.255Z,93339.00
2024-05-09T06:56:40.319Z,93339.00
2024-05-09T06:57:43.064Z,93339.00
2024-05-09T06:58:40.269Z,93340.00
2024-05-09T06:59:40.328Z,93338.00
2024-05-09T07:00:41.795Z,93337.00
2024-05-09T07:01:40.457Z,93337.00
2024-05-09T07:02:40.443Z,93338.00
2024-05-09T07:03:40.455Z,93336.00
2024-05-09T07:04:40.344Z,93337.00
2024-05-09T07:05:40.449Z,93334.00
2024-05-09T07:06:40.309Z,93334.00
2024-05-09T07:07:40.336Z,93334.00
2024-05-09T07:08:40.441Z,93332.00
2024-05-09T07:09:40.328Z,93335.00
2024-05-09T07:10:40.348Z,93332.00
2024-05-09T07:11:40.572Z,93333.00
2024-05-09T07:12:40.362Z,93333.00
2024-05-09T07:13:40.390Z,93331.00
2024-05-09T07:14:40.479Z,93331.00
2024-05-09T07:15:40.557Z,93335.00
2024-05-09T07:16:40.488Z,93335.00
2024-05-09T07:17:40.693Z,93333.00
2024-05-09T07:18:40.798Z,93334.00
2024-05-09T07:19:40.721Z,93333.00
2024-05-09T07:20:40.780Z,93333.00
2024-05-09T07:21:40.652Z,93333.00
2024-05-09T07:22:40.722Z,93333.00
2024-05-09T07:23:41.829Z,93331.00
2024-05-09T07:24:40.726Z,93332.00
2024-05-09T07:25:40.753Z,93330.00
2024-05-09T07:26:40.875Z,93330.00
2024-05-09T07:27:40.808Z,93330.00
2024-05-09T07:28:40.854Z,93329.00
2024-05-09T07:29:40.950Z,93328.00
2024-05-09T07:30:40.891Z,93327.00
2024-05-09T07:31:40.925Z,93325.00
2024-05-09T07:32:41.025Z,93325.00
2024-05-09T07:33:41.150Z,93327.00
2024-05-09T07:34:41.031Z,93326.00
2024-05-09T07:35:41.121Z,93328.00
2024-05-09T07:36:41.062Z,93326.00
2024-05-09T07:37:41.088Z,93326.00
2024-05-09T07:38:41.250Z,93326.00
2024-05-09T07:39:41.131Z,93327.00
2024-05-09T07:40:41.143Z,93326.00
2024-05-09T07:41:41.198Z,93325.00
2024-05-09T07:42:41.176Z,93324.00
2024-05-09T07:43:41.199Z,93324.00
2024-05-09T07:44:41.242Z,93324.00
2024-05-09T07:45:50.387Z,93322.00
2024-05-09T07:47:47.854Z,93323.00
2024-05-09T07:49:12.423Z,93324.00
2024-05-09T07:53:34.237Z,93319.00
2024-05-09T07:53:45.938Z,93319.00
2024-05-09T07:54:42.371Z,93319.00
2024-05-09T07:55:41.493Z,93318.00
2024-05-09T07:56:41.521Z,93317.00
2024-05-09T07:57:41.306Z,93317.00
2024-05-09T07:58:41.240Z,93316.00
2024-05-09T07:59:41.237Z,93316.00
2024-05-09T08:00:41.327Z,93313.00
2024-05-09T08:01:41.328Z,93310.00
2024-05-09T08:02:41.266Z,93312.00
2024-05-09T08:03:41.447Z,93310.00
2024-05-09T08:04:41.502Z,93314.00
2024-05-09T08:05:41.421Z,93312.00
2024-05-09T08:06:41.246Z,93313.00
2024-05-09T08:07:41.224Z,93313.00
2024-05-09T08:08:41.210Z,93312.00
2024-05-09T08:09:41.258Z,93312.00
2024-05-09T08:10:41.408Z,93312.00
2024-05-09T08:11:41.250Z,93313.00
2024-05-09T08:12:41.276Z,93311.00
2024-05-09T08:13:41.216Z,93313.00
2024-05-09T08:14:41.195Z,93311.00
2024-05-09T08:15:41.314Z,93309.00
2024-05-09T08:16:41.196Z,93306.00
2024-05-09T08:17:41.315Z,93308.00
2024-05-09T08:18:41.337Z,93306.00
2024-05-09T08:19:41.256Z,93305.00
2024-05-09T08:20:41.258Z,93301.00
2024-05-09T08:21:41.239Z,93302.00
2024-05-09T08:22:41.194Z,93299.00
2024-05-09T08:23:41.212Z,93300.00
2024-05-09T08:24:41.247Z,93299.00
2024-05-09T08:25:41.202Z,93303.00
2024-05-09T08:26:41.180Z,93299.00
2024-05-09T08:27:41.183Z,93298.00
2024-05-09T08:28:41.168Z,93298.00
2024-05-09T08:29:41.256Z,93297.00
2024-05-09T08:30:41.303Z,93297.00
2024-05-09T08:31:41.271Z,93296.00
2024-05-09T08:32:42.022Z,93296.00
2024-05-09T08:33:41.280Z,93294.00
2024-05-09T08:34:41.200Z,93294.00
2024-05-09T08:35:41.215Z,93296.00
2024-05-09T08:36:41.310Z,93295.00
2024-05-09T08:37:41.498Z,93294.00
2024-05-09T08:38:41.392Z,93294.00
2024-05-09T08:39:41.478Z,93294.00
2024-05-09T08:40:41.547Z,93291.00
2024-05-09T08:41:41.473Z,93292.00
2024-05-09T08:42:41.559Z,93290.00
2024-05-09T08:43:42.140Z,93290.00
2024-05-09T08:44:41.626Z,93290.00
2024-05-09T08:45:41.746Z,93288.00
2024-05-09T08:46:41.731Z,93289.00
2024-05-09T08:47:41.871Z,93288.00
2024-05-09T08:48:41.962Z,93286.00
2024-05-09T08:49:41.949Z,93287.00
2024-05-09T08:50:42.222Z,93286.00
2024-05-09T08:51:42.062Z,93283.00
2024-05-09T08:52:42.068Z,93284.00
2024-05-09T08:53:42.112Z,93285.00
2024-05-09T08:54:42.187Z,93282.00
2024-05-09T08:55:43.858Z,93282.00
2024-05-09T08:56:42.283Z,93282.00
2024-05-09T08:57:42.366Z,93282.00
2024-05-09T08:58:42.381Z,93280.00
2024-05-09T08:59:42.452Z,93279.00
2024-05-09T09:00:42.622Z,93277.00
2024-05-09T09:01:42.645Z,93278.00
2024-05-09T09:02:42.742Z,93276.00
2024-05-09T09:03:42.985Z,93277.00
2024-05-09T09:04:42.893Z,93275.00
2024-05-09T09:05:42.861Z,93277.00
2024-05-09T09:06:42.842Z,93277.00
2024-05-09T09:07:42.835Z,93275.00
2024-05-09T09:08:42.883Z,93276.00
2024-05-09T09:09:42.955Z,93274.00
2024-05-09T09:10:43.176Z,93277.00
2024-05-09T09:11:43.018Z,93275.00
2024-05-09T09:12:43.106Z,93272.00
2024-05-09T09:13:43.073Z,93276.00
2024-05-09T09:14:43.125Z,93274.00
2024-05-09T09:15:43.233Z,93272.00
2024-05-09T09:16:43.189Z,93274.00
2024-05-09T09:17:43.357Z,93275.00
2024-05-09T09:18:43.536Z,93273.00
2024-05-09T09:19:43.365Z,93270.00
2024-05-09T09:20:43.423Z,93272.00
2024-05-09T09:21:43.443Z,93272.00
2024-05-09T09:22:43.414Z,93269.00
2024-05-09T09:23:43.450Z,93267.00
2024-05-09T09:24:43.503Z,93268.00
2024-05-09T09:25:43.527Z,93267.00
2024-05-09T09:26:43.572Z,93267.00
2024-05-09T09:27:43.625Z,93269.00
2024-05-09T09:28:43.626Z,93270.00
2024-05-09T09:29:43.661Z,93267.00
2024-05-09T09:30:43.744Z,93269.00
2024-05-09T09:31:43.749Z,93263.00
2024-05-09T09:32:43.839Z,93265.00
2024-05-09T09:33:44.044Z,93264.00
2024-05-09T09:34:43.932Z,93265.00
2024-05-09T09:35:43.904Z,93262.00
2024-05-09T09:36:43.950Z,93263.00
2024-05-09T09:37:43.910Z,93259.00
2024-05-09T09:38:43.981Z,93262.00
2024-05-09T09:39:43.995Z,93260.00
2024-05-09T09:40:48.591Z,93258.00
2024-05-09T09:41:44.931Z,93256.00
2024-05-09T09:42:44.004Z,93255.00
2024-05-09T09:43:43.916Z,93254.00
2024-05-09T09:44:47.911Z,93250.00
2024-05-09T09:45:44.992Z,93248.00
2024-05-09T09:46:43.882Z,93247.00
2024-05-09T09:47:44.048Z,93245.00
2024-05-09T09:48:44.001Z,93246.00
2024-05-09T09:49:43.980Z,93240.00
2024-05-09T09:50:43.819Z,93238.00
2024-05-09T09:51:44.035Z,93241.00
2024-05-09T09:52:43.797Z,93244.00
2024-05-09T09:53:43.996Z,93240.00
2024-05-09T09:54:43.848Z,93238.00
2024-05-09T09:55:43.763Z,93236.00
2024-05-09T09:56:43.783Z,93236.00
2024-05-09T09:57:43.894Z,93234.00
2024-05-09T09:58:43.742Z,93233.00
2024-05-09T09:59:43.728Z,93230.00
2024-05-09T10:00:43.925Z,93231.00
2024-05-09T10:01:43.850Z,93230.00
2024-05-09T10:02:43.753Z,93230.00
2024-05-09T10:03:43.879Z,93229.00
2024-05-09T10:04:43.861Z,93227.00
2024-05-09T10:05:46.359Z,93228.00
2024-05-09T10:06:43.705Z,93228.00
2024-05-09T10:07:43.663Z,93228.00
2024-05-09T10:08:43.652Z,93224.00
2024-05-09T10:09:43.639Z,93225.00
2024-05-09T10:10:43.952Z,93223.00
2024-05-09T10:11:49.152Z,93223.00
2024-05-09T10:12:44.610Z,93221.00
2024-05-09T10:13:43.587Z,93223.00
2024-05-09T10:14:43.564Z,93222.00
2024-05-09T10:15:43.574Z,93220.00
2024-05-09T10:16:43.555Z,93221.00
2024-05-09T10:17:43.597Z,93219.00
2024-05-09T10:18:43.770Z,93221.00
2024-05-09T10:19:43.540Z,93217.00
2024-05-09T10:20:43.508Z,93218.00
2024-05-09T10:21:43.504Z,93217.00
2024-05-09T10:22:43.430Z,93218.00
2024-05-09T10:23:43.433Z,93217.00
2024-05-09T10:24:43.430Z,93215.00
2024-05-09T10:25:43.400Z,93212.00
2024-05-09T10:26:43.412Z,93211.00
2024-05-09T10:27:43.404Z,93207.00
2024-05-09T10:28:43.375Z,93206.00
2024-05-09T10:29:43.340Z,93203.00
2024-05-09T10:30:43.877Z,93205.00
2024-05-09T10:31:43.544Z,93201.00
2024-05-09T10:32:43.438Z,93201.00
2024-05-09T10:33:43.402Z,93205.00
2024-05-09T10:34:43.387Z,93201.00
2024-05-09T10:35:43.288Z,93199.00
2024-05-09T10:36:43.405Z,93197.00
2024-05-09T10:37:43.294Z,93197.00
2024-05-09T10:38:43.416Z,93196.00
2024-05-09T10:39:43.349Z,93195.00
2024-05-09T10:40:43.353Z,93196.00
2024-05-09T10:41:43.289Z,93196.00
2024-05-09T10:42:43.343Z,93192.00
2024-05-09T10:43:43.291Z,93190.00
2024-05-09T10:44:43.308Z,93191.00
2024-05-09T10:45:43.348Z,93191.00
2024-05-09T10:46:43.316Z,93192.00
2024-05-09T10:47:43.427Z,93189.00
2024-05-09T10:48:43.897Z,93190.00
2024-05-09T10:49:43.379Z,93189.00
2024-05-09T10:50:43.355Z,93188.00
2024-05-09T10:51:43.416Z,93189.00
2024-05-09T10:52:43.386Z,93188.00
2024-05-09T10:53:43.532Z,93188.00
2024-05-09T10:54:43.447Z,93184.00
2024-05-09T10:55:43.417Z,93186.00
2024-05-09T10:56:43.435Z,93184.00
2024-05-09T10:57:43.513Z,93182.00
2024-05-09T10:58:43.484Z,93182.00
2024-05-09T10:59:43.480Z,93180.00
2024-05-09T11:00:43.640Z,93179.00
2024-05-09T11:01:43.708Z,93176.00
2024-05-09T11:02:43.779Z,93175.00
2024-05-09T11:03:43.693Z,93175.00
2024-05-09T11:04:43.649Z,93173.00
2024-05-09T11:05:43.751Z,93172.00
2024-05-09T11:06:43.609Z,93172.00
2024-05-09T11:07:43.592Z,93173.00
2024-05-09T11:08:43.609Z,93170.00
2024-05-09T11:09:43.680Z,93166.00
2024-05-09T11:10:43.727Z,93169.00
2024-05-09T11:11:43.731Z,93165.00
2024-05-09T11:12:43.719Z,93166.00
2024-05-09T11:13:43.708Z,93166.00
2024-05-09T11:14:43.728Z,93164.00
2024-05-09T11:15:43.809Z,93164.00
2024-05-09T11:16:43.758Z,93159.00
2024-05-09T11:17:43.917Z,93161.00
2024-05-09T11:18:44.019Z,93162.00
2024-05-09T11:19:43.895Z,93161.00
2024-05-09T11:20:43.918Z,93160.00
2024-05-09T11:21:43.870Z,93160.00
2024-05-09T11:22:43.876Z,93158.00
2024-05-09T11:23:43.902Z,93161.00
2024-05-09T11:24:43.964Z,93161.00
2024-05-09T11:25:43.942Z,93162.00
2024-05-09T11:26:43.962Z,93161.00
2024-05-09T11:27:44.054Z,93162.00
2024-05-09T11:28:44.017Z,93161.00
2024-05-09T11:29:44.032Z,93160.00
2024-05-09T11:30:44.114Z,93160.00
2024-05-09T11:31:44.168Z,93160.00
2024-05-09T11:32:44.211Z,93158.00
2024-05-09T11:33:44.298Z,93160.00
2024-05-09T11:34:44.214Z,93156.00
2024-05-09T11:35:44.187Z,93156.00
2024-05-09T11:36:44.288Z,93156.00
2024-05-09T11:37:44.233Z,93157.00
2024-05-09T11:38:44.265Z,93156.00
2024-05-09T11:39:44.411Z,93153.00
2024-05-09T11:40:44.328Z,93153.00
2024-05-09T11:41:44.337Z,93152.00
2024-05-09T11:42:44.473Z,93148.00
2024-05-09T11:43:44.422Z,93149.00
2024-05-09T11:44:44.435Z,93146.00
2024-05-09T11:45:44.486Z,93144.00
2024-05-09T11:46:44.483Z,93143.00
2024-05-09T11:47:44.601Z,93143.00
2024-05-09T11:48:44.852Z,93144.00
2024-05-09T11:49:44.618Z,93141.00
2024-05-09T11:50:44.665Z,93139.00